createdAt,value
2022-08-09T06:52:52.288Z,100821.03
2022-08-09T06:55:23.003Z,100819.22
2022-08-09T06:58:02.955Z,100829.03
2022-08-09T07:00:51.245Z,100822.84
2022-08-09T07:03:26.936Z,100823.94
2022-08-09T07:06:03.896Z,100824.91
2022-08-09T07:08:32.617Z,100822.94
2022-08-09T07:10:59.632Z,100827.97
2022-08-09T07:13:30.570Z,100824.84
2022-08-09T07:16:43.423Z,100824.84
2022-08-09T07:18:47.517Z,100828.56
2022-08-09T07:21:17.016Z,100829.59
2022-08-09T07:23:56.721Z,100834.34
2022-08-09T07:26:26.095Z,100826.47
2022-08-09T07:29:01.275Z,100833.91
2022-08-09T07:31:38.610Z,100825.66
2022-08-09T07:34:20.382Z,100828.50
2022-08-09T07:36:49.385Z,100819.44
2022-08-09T07:39:20.596Z,100820.13
2022-08-09T07:42:05.094Z,100820.44
2022-08-09T07:44:51.133Z,100816.56
2022-08-09T07:47:29.548Z,100815.03
2022-08-09T07:50:08.596Z,100813.88
2022-08-09T07:52:38.031Z,100818.78
2022-08-09T07:55:08.939Z,100818.09
2022-08-09T07:57:37.072Z,100824.00
2022-08-09T08:00:13.791Z,100820.91
2022-08-09T08:02:48.079Z,100825.44
2022-08-09T08:05:18.061Z,100817.34
2022-08-09T08:08:43.933Z,100829.44
2022-08-09T08:10:34.301Z,100825.03
2022-08-09T08:13:03.922Z,100820.50
2022-08-09T08:15:35.480Z,100824.47
2022-08-09T08:18:04.888Z,100824.53
2022-08-09T08:20:33.156Z,100816.81
2022-08-09T08:23:16.120Z,100821.72
2022-08-09T08:25:50.369Z,100816.06
2022-08-09T08:28:25.974Z,100816.56
2022-08-09T08:31:08.941Z,100819.09
2022-08-09T08:33:40.805Z,100808.97
2022-08-09T08:36:29.275Z,100821.19
2022-08-09T08:38:58.626Z,100804.28
2022-08-09T08:41:50.364Z,100807.09
2022-08-09T08:44:14.969Z,100808.94
2022-08-09T08:47:02.421Z,100805.91
2022-08-09T08:49:38.513Z,100814.63
2022-08-09T08:52:35.283Z,100814.16
2022-08-09T08:55:04.015Z,100814.44
2022-08-09T08:57:35.490Z,100810.78
2022-08-09T09:00:13.079Z,100809.47
2022-08-09T09:02:52.638Z,100805.63
2022-08-09T09:05:33.359Z,100809.19
2022-08-09T09:08:29.818Z,100810.38
2022-08-09T09:11:02.885Z,100807.34
2022-08-09T09:13:41.522Z,100803.97
2022-08-09T09:16:17.281Z,100807.25
2022-08-09T09:19:21.609Z,100801.69
2022-08-09T09:22:07.624Z,100800.53
2022-08-09T09:24:39.795Z,100802.72
2022-08-09T09:28:04.274Z,100801.75
2022-08-09T09:30:24.746Z,100801.88
2022-08-09T09:33:15.957Z,100794.34
2022-08-09T09:36:00.575Z,100798.34
2022-08-09T09:38:57.423Z,100803.91
2022-08-09T09:41:26.194Z,100794.50
2022-08-09T09:44:10.874Z,100792.63
2022-08-09T09:46:46.058Z,100800.78
2022-08-09T09:49:23.576Z,100801.91
2022-08-09T09:52:35.821Z,100808.09
2022-08-09T09:55:31.987Z,100799.69
2022-08-09T09:58:16.530Z,100797.47
2022-08-09T10:00:58.726Z,100796.75
2022-08-09T10:04:00.757Z,100789.94
2022-08-09T10:06:42.899Z,100795.19
2022-08-09T10:09:22.134Z,100788.31
2022-08-09T10:12:12.954Z,100786.84
2022-08-09T10:14:51.310Z,100782.44
2022-08-09T10:17:50.101Z,100784.94
2022-08-09T10:20:32.972Z,100777.59
2022-08-09T10:23:16.923Z,100777.56
2022-08-09T10:26:04.964Z,100775.25
2022-08-09T10:28:34.224Z,100771.91
2022-08-09T10:34:10.761Z,100761.63
2022-08-09T10:36:38.518Z,100757.59
2022-08-09T10:39:06.062Z,100763.47
2022-08-09T10:41:43.365Z,100752.97
2022-08-09T10:44:10.732Z,100757.84
2022-08-09T10:46:54.282Z,100760.88
2022-08-09T10:49:51.307Z,100760.16
2022-08-09T10:52:26.442Z,100765.03
2022-08-09T10:54:53.742Z,100767.56
2022-08-09T10:57:21.524Z,100757.28
2022-08-09T10:59:57.907Z,100767.00
2022-08-09T11:03:07.402Z,100758.81
2022-08-09T11:05:30.117Z,100759.28
2022-08-09T11:08:43.728Z,100759.53
2022-08-09T11:11:16.545Z,100759.91
2022-08-09T11:13:50.383Z,100751.56
2022-08-09T11:16:35.117Z,100747.19
2022-08-09T11:19:08.021Z,100750.75
2022-08-09T11:21:57.533Z,100743.13
2022-08-09T11:25:09.868Z,100742.34
2022-08-09T11:28:04.750Z,100740.66
2022-08-09T11:30:33.605Z,100745.72
2022-08-09T11:33:10.489Z,100748.53
2022-08-09T11:35:49.501Z,100742.88
2022-08-09T11:38:35.521Z,100745.34
2022-08-09T11:41:15.935Z,100741.97
2022-08-09T11:43:48.886Z,100739.22
2022-08-09T11:46:26.516Z,100735.91
2022-08-09T11:49:00.980Z,100738.47
2022-08-09T11:53:00.582Z,100748.06
2022-08-09T11:55:39.919Z,100730.66
2022-08-09T11:58:13.514Z,100729.53
2022-08-09T12:00:53.692Z,100732.13
2022-08-09T12:03:54.896Z,100723.69
2022-08-09T12:06:16.453Z,100720.41
2022-08-09T12:08:53.097Z,100725.84
2022-08-09T12:11:27.331Z,100719.38
2022-08-09T12:14:09.719Z,100722.53
2022-08-09T12:16:44.762Z,100724.25
2022-08-09T12:19:14.049Z,100717.97
2022-08-09T12:21:50.835Z,100723.41
2022-08-09T12:24:25.178Z,100713.56
2022-08-09T12:29:15.303Z,100721.13
2022-08-09T12:30:01.541Z,100707.31
2022-08-09T12:32:43.044Z,100709.19
2022-08-09T12:35:13.165Z,100705.03
2022-08-09T12:37:51.609Z,100708.13
2022-08-09T12:40:21.247Z,100704.59
2022-08-09T12:42:50.942Z,100694.09
2022-08-09T12:45:34.787Z,100703.16
2022-08-09T12:48:20.104Z,100692.44
2022-08-09T12:50:57.445Z,100693.66
2022-08-09T12:53:40.792Z,100695.81
2022-08-09T12:56:39.241Z,100697.25
2022-08-09T12:59:13.992Z,100696.44
2022-08-09T13:01:48.842Z,100696.63
2022-08-09T13:04:36.711Z,100694.13
2022-08-09T13:07:14.377Z,100694.31
2022-08-09T13:09:43.253Z,100691.13
2022-08-09T13:12:12.259Z,100692.84
2022-08-09T13:14:47.210Z,100697.53
2022-08-09T13:17:43.863Z,100695.69
2022-08-09T13:20:16.229Z,100683.91
2022-08-09T13:23:06.072Z,100693.06
2022-08-09T13:25:42.356Z,100689.66
2022-08-09T13:28:18.996Z,100693.31
2022-08-09T13:32:17.562Z,100695.81
2022-08-09T13:33:58.772Z,100696.09
2022-08-09T13:36:41.051Z,100698.22
2022-08-09T13:41:31.116Z,100694.31
2022-08-09T13:42:11.925Z,100685.31
2022-08-09T13:44:42.120Z,100685.13
2022-08-09T13:47:29.049Z,100690.56
2022-08-09T13:50:01.297Z,100691.59
2022-08-09T13:52:30.343Z,100681.59
2022-08-09T13:54:58.905Z,100689.28
2022-08-09T13:57:35.622Z,100679.69
2022-08-09T14:00:08.190Z,100687.66
2022-08-09T14:02:42.053Z,100682.44
2022-08-09T14:05:10.776Z,100679.94
2022-08-09T14:07:42.319Z,100684.53
2022-08-09T14:10:17.280Z,100685.75
2022-08-09T14:12:58.856Z,100683.63
2022-08-09T14:16:06.794Z,100679.72
2022-08-09T14:18:19.744Z,100681.88
2022-08-09T14:20:55.135Z,100681.91
2022-08-09T14:23:40.292Z,100683.25
2022-08-09T14:26:10.659Z,100681.56
2022-08-09T14:28:38.643Z,100684.50
2022-08-09T14:31:07.611Z,100682.50
2022-08-09T14:33:38.117Z,100680.59
2022-08-09T14:36:19.982Z,100680.22
2022-08-09T14:38:52.989Z,100678.31
2022-08-09T14:41:34.478Z,100671.88
2022-08-09T14:44:07.473Z,100670.03
2022-08-09T14:47:04.902Z,100669.66
2022-08-09T14:49:26.762Z,100673.06
2022-08-09T14:51:58.799Z,100668.38
2022-08-09T14:54:28.610Z,100662.53
2022-08-09T14:56:58.642Z,100665.13
2022-08-09T14:59:29.176Z,100667.97
2022-08-09T15:01:57.655Z,100674.22
2022-08-09T15:04:25.508Z,100676.06
2022-08-09T15:06:52.542Z,100665.66
2022-08-09T15:09:51.969Z,100666.16
2022-08-09T15:12:09.811Z,100661.16
2022-08-09T15:14:39.181Z,100659.84
2022-08-09T15:17:09.960Z,100657.03
2022-08-09T15:19:54.569Z,100660.38
2022-08-09T15:22:26.183Z,100667.53
2022-08-09T15:24:54.376Z,100661.66
2022-08-09T15:27:21.966Z,100664.84
2022-08-09T15:30:58.999Z,100661.06
2022-08-09T15:32:36.255Z,100660.47
2022-08-09T15:35:40.266Z,100653.97
2022-08-09T15:37:56.351Z,100658.16
2022-08-09T15:40:33.750Z,100660.22
2022-08-09T15:43:01.747Z,100666.88
2022-08-09T15:45:29.273Z,100661.88
2022-08-09T15:48:06.494Z,100668.75
2022-08-09T15:50:43.825Z,100656.81
2022-08-09T15:53:32.631Z,100665.16
2022-08-09T15:56:23.303Z,100661.78
2022-08-09T15:58:46.508Z,100661.16
2022-08-09T16:01:13.502Z,100659.06
2022-08-09T16:03:41.552Z,100657.44
2022-08-09T16:06:27.404Z,100661.81
2022-08-09T16:08:56.755Z,100657.00
2022-08-09T16:11:30.913Z,100656.81
2022-08-09T16:14:04.708Z,100651.78
2022-08-09T16:16:37.346Z,100663.28
2022-08-09T16:19:09.325Z,100657.22
2022-08-09T16:21:37.509Z,100659.28
2022-08-09T16:24:20.123Z,100663.63
2022-08-09T16:26:56.812Z,100664.66
2022-08-09T16:29:37.915Z,100658.41
2022-08-09T16:32:33.037Z,100658.63
2022-08-09T16:34:58.158Z,100652.16
2022-08-09T16:37:55.203Z,100665.91
2022-08-09T16:40:20.554Z,100657.09
2022-08-09T16:43:03.057Z,100658.06
2022-08-09T16:45:30.563Z,100662.25
2022-08-09T16:48:39.217Z,100664.78
2022-08-09T16:50:59.160Z,100668.09
2022-08-09T16:53:32.574Z,100665.59
2022-08-09T16:56:04.826Z,100668.84
2022-08-09T16:58:35.775Z,100670.88
2022-08-09T17:01:04.402Z,100670.75
2022-08-09T17:03:31.522Z,100673.94
2022-08-09T17:06:07.399Z,100676.88
2022-08-09T17:09:00.109Z,100665.72
2022-08-09T17:11:37.670Z,100681.97
2022-08-09T17:14:25.881Z,100671.00
2022-08-09T17:17:01.536Z,100681.13
2022-08-09T17:19:46.776Z,100679.78
2022-08-09T17:22:24.778Z,100676.34
2022-08-09T17:25:10.265Z,100677.09
2022-08-09T17:27:48.953Z,100668.13
2022-08-09T17:30:17.170Z,100669.53
2022-08-09T17:32:46.835Z,100676.53
2022-08-09T17:35:14.541Z,100677.97
2022-08-09T17:38:14.295Z,100683.38
2022-08-09T17:40:32.156Z,100681.88
2022-08-09T17:43:11.170Z,100688.06
2022-08-09T17:46:04.060Z,100688.63
2022-08-09T17:48:32.254Z,100688.00
2022-08-09T17:51:00.923Z,100692.09
2022-08-09T17:53:42.958Z,100698.75
2022-08-09T17:56:10.887Z,100696.59
2022-08-09T17:58:37.906Z,100704.41
2022-08-09T18:01:09.637Z,100705.16
2022-08-09T18:03:42.564Z,100719.28
2022-08-09T18:06:14.795Z,100716.28
2022-08-09T18:08:55.991Z,100719.88
2022-08-09T18:11:23.949Z,100720.81
2022-08-09T18:13:57.714Z,100726.69
2022-08-09T18:16:30.349Z,100718.31
2022-08-09T18:19:04.247Z,100732.06
2022-08-09T18:21:46.378Z,100740.56
2022-08-09T18:24:17.034Z,100735.31
2022-08-09T18:26:46.432Z,100741.63
2022-08-09T18:30:39.092Z,100746.56
2022-08-09T18:32:05.495Z,100747.69
2022-08-09T18:34:35.347Z,100761.50
2022-08-09T18:37:48.542Z,100777.47
2022-08-09T18:39:58.427Z,100790.59
2022-08-09T18:42:29.227Z,100797.31
2022-08-09T18:44:57.045Z,100807.63
2022-08-09T18:47:27.611Z,100814.78
2022-08-09T18:49:59.936Z,100807.91
2022-08-09T18:52:34.845Z,100817.94
2022-08-09T18:55:03.003Z,100820.28
2022-08-09T18:57:42.749Z,100824.22
2022-08-09T19:00:19.884Z,100832.53
2022-08-09T19:02:51.325Z,100827.84
2022-08-09T19:05:28.804Z,100833.59
2022-08-09T19:08:10.601Z,100835.16
2022-08-09T19:10:41.259Z,100831.94
2022-08-09T19:13:22.585Z,100844.47
2022-08-09T19:15:58.884Z,100848.38
2022-08-09T19:18:33.352Z,100867.16
2022-08-09T19:21:09.330Z,100869.91
2022-08-09T19:24:37.354Z,100868.06
2022-08-09T19:26:29.513Z,100871.75
2022-08-09T19:29:02.438Z,100883.88
2022-08-09T19:31:45.325Z,100895.72
2022-08-09T19:34:22.193Z,100889.31
2022-08-09T19:36:52.620Z,100902.84
2022-08-09T19:39:42.835Z,100899.28
2022-08-09T19:42:08.765Z,100901.50
